createdAt,value
2023-05-14T00:00:56.720Z,0.00
2023-05-14T00:01:56.712Z,0.00
2023-05-14T00:02:56.822Z,0.00
2023-05-14T00:03:56.816Z,0.00
2023-05-14T00:04:56.674Z,0.00
2023-05-14T00:05:56.670Z,0.00
2023-05-14T00:06:56.662Z,0.00
2023-05-14T00:07:56.613Z,0.00
2023-05-14T00:08:56.621Z,0.00
2023-05-14T00:09:56.626Z,0.00
2023-05-14T00:10:56.616Z,0.00
2023-05-14T00:11:56.572Z,0.00
2023-05-14T00:12:57.534Z,0.00
2023-05-14T00:13:56.568Z,0.00
2023-05-14T00:14:56.571Z,0.00
2023-05-14T00:15:56.699Z,0.00
2023-05-14T00:16:56.549Z,0.00
2023-05-14T00:17:56.571Z,0.00
2023-05-14T00:18:56.541Z,0.00
2023-05-14T00:19:56.505Z,0.00
2023-05-14T00:20:56.532Z,0.00
2023-05-14T00:21:56.520Z,0.00
2023-05-14T00:22:56.469Z,0.00
2023-05-14T00:23:56.478Z,0.00
2023-05-14T00:24:56.462Z,0.00
2023-05-14T00:25:56.432Z,0.00
2023-05-14T00:26:56.451Z,0.00
2023-05-14T00:27:56.421Z,0.00
2023-05-14T00:28:56.414Z,0.00
2023-05-14T00:29:56.413Z,0.00
2023-05-14T00:30:56.427Z,0.00
2023-05-14T00:31:56.392Z,0.00
2023-05-14T00:32:56.371Z,0.00
2023-05-14T00:33:56.346Z,0.00
2023-05-14T00:34:56.357Z,0.00
2023-05-14T00:35:56.321Z,0.00
2023-05-14T00:36:56.286Z,0.00
2023-05-14T00:37:56.304Z,0.00
2023-05-14T00:38:56.325Z,0.00
2023-05-14T00:39:56.303Z,0.00
2023-05-14T00:40:56.289Z,0.00
2023-05-14T00:41:56.239Z,0.00
2023-05-14T00:42:56.229Z,0.00
2023-05-14T00:43:56.238Z,0.00
2023-05-14T00:44:56.223Z,0.00
2023-05-14T00:45:56.233Z,0.00
2023-05-14T00:46:56.273Z,0.00
2023-05-14T00:47:56.232Z,0.00
2023-05-14T00:48:56.199Z,0.00
2023-05-14T00:49:56.254Z,0.00
2023-05-14T00:50:56.213Z,0.00
2023-05-14T00:51:56.179Z,0.00
2023-05-14T00:52:56.160Z,0.00
2023-05-14T00:53:56.113Z,0.00
2023-05-14T00:54:56.142Z,0.00
2023-05-14T00:55:56.115Z,0.00
2023-05-14T00:56:56.105Z,0.00
2023-05-14T00:57:56.116Z,0.00
2023-05-14T00:58:56.091Z,0.00
2023-05-14T00:59:56.071Z,0.00
2023-05-14T01:00:56.118Z,0.00
2023-05-14T01:01:56.063Z,0.00
2023-05-14T01:02:56.103Z,0.00
2023-05-14T01:03:56.279Z,0.00
2023-05-14T01:04:56.023Z,0.00
2023-05-14T01:05:56.043Z,0.00
2023-05-14T01:06:55.977Z,0.00
2023-05-14T01:07:55.973Z,0.00
2023-05-14T01:08:55.992Z,0.00
2023-05-14T01:09:55.977Z,0.00
2023-05-14T01:10:55.959Z,0.00
2023-05-14T01:11:55.968Z,0.00
2023-05-14T01:12:55.962Z,0.00
2023-05-14T01:13:55.969Z,0.00
2023-05-14T01:14:55.886Z,0.00
2023-05-14T01:15:55.926Z,0.00
2023-05-14T01:16:55.940Z,0.00
2023-05-14T01:17:55.928Z,0.00
2023-05-14T01:18:55.899Z,0.00
2023-05-14T01:19:55.881Z,0.00
2023-05-14T01:20:55.876Z,0.00
2023-05-14T01:21:55.832Z,0.00
2023-05-14T01:22:55.838Z,0.00
2023-05-14T01:23:55.811Z,0.00
2023-05-14T01:24:55.816Z,0.00
2023-05-14T01:25:55.872Z,0.00
2023-05-14T01:26:55.807Z,0.00
2023-05-14T01:27:55.825Z,0.00
2023-05-14T01:28:55.772Z,0.00
2023-05-14T01:29:55.786Z,0.00
2023-05-14T01:30:55.753Z,0.00
2023-05-14T01:31:55.769Z,0.00
2023-05-14T01:32:55.759Z,0.00
2023-05-14T01:33:55.689Z,0.00
2023-05-14T01:34:55.710Z,0.00
2023-05-14T01:35:55.703Z,0.00
2023-05-14T01:36:55.684Z,0.00
2023-05-14T01:37:55.713Z,0.00
2023-05-14T01:38:55.641Z,0.00
2023-05-14T01:39:55.679Z,0.00
2023-05-14T01:40:55.636Z,0.00
2023-05-14T01:41:55.636Z,0.00
2023-05-14T01:42:55.679Z,0.00
2023-05-14T01:43:55.660Z,0.00
2023-05-14T01:44:55.620Z,0.00
2023-05-14T01:45:55.755Z,0.00
2023-05-14T01:46:55.600Z,0.00
2023-05-14T01:47:55.647Z,0.00
2023-05-14T01:48:55.526Z,0.00
2023-05-14T01:49:55.528Z,0.00
2023-05-14T01:50:55.553Z,0.00
2023-05-14T01:51:55.518Z,0.00
2023-05-14T01:52:55.526Z,0.00
2023-05-14T01:53:55.498Z,0.00
2023-05-14T01:54:55.569Z,0.00
2023-05-14T01:55:55.494Z,0.00
2023-05-14T01:56:55.460Z,0.00
2023-05-14T01:57:55.492Z,0.00
2023-05-14T01:58:55.479Z,0.00
2023-05-14T01:59:55.410Z,0.00
2023-05-14T02:00:55.434Z,0.00
2023-05-14T02:01:55.512Z,0.00
2023-05-14T02:02:55.472Z,0.00
2023-05-14T02:03:55.455Z,0.00
2023-05-14T02:04:55.390Z,0.00
2023-05-14T02:05:55.349Z,0.00
2023-05-14T02:06:55.358Z,0.00
2023-05-14T02:07:55.315Z,0.00
2023-05-14T02:08:55.318Z,0.00
2023-05-14T02:09:55.324Z,0.00
2023-05-14T02:10:55.295Z,0.00
2023-05-14T02:11:55.290Z,0.00
2023-05-14T02:12:55.320Z,0.00
2023-05-14T02:13:55.295Z,0.00
2023-05-14T02:14:55.286Z,0.00
2023-05-14T02:15:55.263Z,0.00
2023-05-14T02:16:55.269Z,0.00
2023-05-14T02:17:55.269Z,0.00
2023-05-14T02:18:55.393Z,0.00
2023-05-14T02:19:55.245Z,0.00
2023-05-14T02:20:55.339Z,0.00
2023-05-14T02:21:55.228Z,0.00
2023-05-14T02:22:55.193Z,0.00
2023-05-14T02:23:55.225Z,0.00
2023-05-14T02:24:55.168Z,0.00
2023-05-14T02:25:55.185Z,0.00
2023-05-14T02:26:55.130Z,0.00
2023-05-14T02:27:55.114Z,1.00
2023-05-14T02:28:55.130Z,0.00
2023-05-14T02:29:55.113Z,0.00
2023-05-14T02:30:55.167Z,0.00
2023-05-14T02:31:55.229Z,1.00
2023-05-14T02:32:55.162Z,1.00
2023-05-14T02:33:55.079Z,1.00
2023-05-14T02:34:55.025Z,1.00
2023-05-14T02:35:55.073Z,0.00
2023-05-14T02:36:55.076Z,0.00
2023-05-14T02:37:54.973Z,2.00
2023-05-14T02:38:54.977Z,1.00
2023-05-14T02:39:54.994Z,1.00
2023-05-14T02:40:55.115Z,0.00
2023-05-14T02:41:55.020Z,2.00
2023-05-14T02:42:55.024Z,1.00
2023-05-14T02:43:54.928Z,1.00
2023-05-14T02:44:55.002Z,1.00
2023-05-14T02:45:54.901Z,6.00
2023-05-14T02:46:54.924Z,5.00
2023-05-14T02:47:54.903Z,5.00
2023-05-14T02:48:54.922Z,4.00
2023-05-14T02:49:54.970Z,1.00
2023-05-14T02:50:55.090Z,2.00
2023-05-14T02:51:54.808Z,6.00
2023-05-14T02:52:54.803Z,8.00
2023-05-14T02:53:54.895Z,7.00
2023-05-14T02:54:54.808Z,8.00
2023-05-14T02:55:54.830Z,9.00
2023-05-14T02:56:54.781Z,10.00
2023-05-14T02:57:54.803Z,12.00
2023-05-14T02:58:54.762Z,15.00
2023-05-14T02:59:54.761Z,14.00
2023-05-14T03:00:54.800Z,15.00
2023-05-14T03:01:54.776Z,18.00
2023-05-14T03:02:54.789Z,21.00
2023-05-14T03:03:54.753Z,24.00
2023-05-14T03:04:54.682Z,24.00
2023-05-14T03:05:54.682Z,28.00
2023-05-14T03:06:54.672Z,33.00
2023-05-14T03:07:54.673Z,34.00
2023-05-14T03:08:54.680Z,33.00
2023-05-14T03:09:54.721Z,31.00
2023-05-14T03:10:54.640Z,37.00
2023-05-14T03:11:54.610Z,40.00
2023-05-14T03:12:54.622Z,45.00
2023-05-14T03:13:54.704Z,52.00
2023-05-14T03:14:54.614Z,54.00
2023-05-14T03:15:54.758Z,58.00
2023-05-14T03:16:54.576Z,62.00
2023-05-14T03:17:54.732Z,66.00
2023-05-14T03:18:54.561Z,72.00
2023-05-14T03:19:54.560Z,82.00
2023-05-14T03:20:54.574Z,87.00
2023-05-14T03:21:54.571Z,95.00
2023-05-14T03:22:54.559Z,103.00
2023-05-14T03:23:54.523Z,108.00
2023-05-14T03:24:54.502Z,116.00
2023-05-14T03:25:54.488Z,121.00
2023-05-14T03:26:54.483Z,130.00
2023-05-14T03:27:54.456Z,139.00
2023-05-14T03:28:54.446Z,149.00
2023-05-14T03:29:54.449Z,159.00
2023-05-14T03:30:54.472Z,170.00
2023-05-14T03:31:54.433Z,179.00
2023-05-14T03:32:54.468Z,190.00
2023-05-14T03:33:54.441Z,206.00
2023-05-14T03:34:54.432Z,215.00
2023-05-14T03:35:54.389Z,228.00
2023-05-14T03:36:54.404Z,244.00
2023-05-14T03:37:54.412Z,257.00
2023-05-14T03:38:54.382Z,272.00
2023-05-14T03:39:54.346Z,288.00
2023-05-14T03:40:54.384Z,306.00
2023-05-14T03:41:54.453Z,324.00
2023-05-14T03:42:54.281Z,349.00
2023-05-14T03:43:54.408Z,371.00
2023-05-14T03:44:54.294Z,383.00
2023-05-14T03:45:54.285Z,388.00
2023-05-14T03:46:54.281Z,397.00
2023-05-14T03:47:54.366Z,414.00
2023-05-14T03:48:54.303Z,420.00
2023-05-14T03:49:54.271Z,421.00
2023-05-14T03:50:54.281Z,417.00
2023-05-14T03:51:54.240Z,427.00
2023-05-14T03:52:54.186Z,431.00
2023-05-14T03:53:54.234Z,448.00
2023-05-14T03:54:54.216Z,462.00
2023-05-14T03:55:54.149Z,474.00
2023-05-14T03:56:54.207Z,491.00
2023-05-14T03:57:54.348Z,523.00
2023-05-14T03:58:54.153Z,564.00
2023-05-14T03:59:54.321Z,612.00
2023-05-14T04:00:54.243Z,653.00
2023-05-14T04:01:54.352Z,665.00
2023-05-14T04:02:54.180Z,746.00
2023-05-14T04:03:54.287Z,850.00
2023-05-14T04:04:54.490Z,939.00
2023-05-14T04:05:54.060Z,1007.00
2023-05-14T04:06:54.075Z,1064.00
2023-05-14T04:07:54.043Z,1141.00
2023-05-14T04:08:54.187Z,1226.00
2023-05-14T04:09:54.186Z,1251.00
2023-05-14T04:10:54.046Z,1296.00
2023-05-14T04:11:54.658Z,1350.00
2023-05-14T04:12:54.014Z,1410.00
2023-05-14T04:13:54.078Z,1461.00
2023-05-14T04:14:53.923Z,1503.00
2023-05-14T04:15:53.969Z,1553.00
2023-05-14T04:16:53.953Z,1594.00
2023-05-14T04:17:53.915Z,1646.00
2023-05-14T04:18:54.065Z,1673.00
2023-05-14T04:19:54.056Z,1725.00
2023-05-14T04:20:53.917Z,1790.00
2023-05-14T04:21:53.893Z,1856.00
2023-05-14T04:22:53.897Z,1982.00
2023-05-14T04:23:53.931Z,2205.00
2023-05-14T04:24:53.854Z,2395.00
2023-05-14T04:25:53.834Z,2455.00
2023-05-14T04:26:53.813Z,2421.00
2023-05-14T04:27:53.802Z,2316.00
2023-05-14T04:28:53.971Z,2227.00
2023-05-14T04:29:53.809Z,2180.00
2023-05-14T04:30:53.924Z,2118.00
2023-05-14T04:31:53.843Z,2079.00
2023-05-14T04:32:53.927Z,2034.00
2023-05-14T04:33:53.787Z,1999.00
2023-05-14T04:34:53.735Z,2021.00
2023-05-14T04:35:53.765Z,2045.00
2023-05-14T04:36:53.833Z,2080.00
2023-05-14T04:37:54.707Z,2118.00
2023-05-14T04:38:53.690Z,2222.00
2023-05-14T04:39:53.723Z,2296.00
2023-05-14T04:40:53.746Z,2200.00
2023-05-14T04:41:53.663Z,2627.00
2023-05-14T04:42:53.742Z,2863.00
2023-05-14T04:43:54.034Z,2969.00
2023-05-14T04:44:53.633Z,3113.00
2023-05-14T04:45:53.760Z,3245.00
2023-05-14T04:46:53.626Z,3322.00
2023-05-14T04:47:53.693Z,3362.00
2023-05-14T04:48:53.597Z,3403.00
2023-05-14T04:49:53.578Z,3470.00
2023-05-14T04:50:53.566Z,3517.00
2023-05-14T04:51:53.614Z,3567.00
2023-05-14T04:52:53.724Z,3603.00
2023-05-14T04:53:53.516Z,3630.00
2023-05-14T04:54:53.528Z,3638.00
2023-05-14T04:55:53.968Z,2531.00
2023-05-14T04:56:53.533Z,1778.00
2023-05-14T04:57:53.503Z,3982.00
2023-05-14T04:58:53.489Z,13472.00
2023-05-14T04:59:53.538Z,16005.00
2023-05-14T05:00:53.501Z,11666.00
2023-05-14T05:01:53.466Z,16200.00
2023-05-14T05:02:53.485Z,10965.00
2023-05-14T05:03:53.469Z,12496.00
2023-05-14T05:04:53.479Z,22231.00
2023-05-14T05:05:53.510Z,8187.00
2023-05-14T05:06:53.395Z,10826.00
2023-05-14T05:07:53.420Z,3484.00
2023-05-14T05:08:53.382Z,3129.00
2023-05-14T05:09:53.397Z,2949.00
2023-05-14T05:10:53.383Z,2793.00
2023-05-14T05:11:53.430Z,2652.00
2023-05-14T05:12:53.371Z,2543.00
2023-05-14T05:13:53.350Z,2468.00
2023-05-14T05:14:53.304Z,2477.00
2023-05-14T05:15:53.403Z,2448.00
2023-05-14T05:16:53.349Z,2727.00
2023-05-14T05:17:53.380Z,2583.00
2023-05-14T05:18:53.475Z,2452.00
2023-05-14T05:19:53.368Z,2594.00
2023-05-14T05:20:53.255Z,2446.00
2023-05-14T05:21:53.238Z,2404.00
2023-05-14T05:22:53.221Z,2771.00
2023-05-14T05:23:53.246Z,2446.00
2023-05-14T05:24:53.223Z,1874.00
2023-05-14T05:25:53.200Z,6665.00
2023-05-14T05:26:53.211Z,2082.00
2023-05-14T05:27:53.189Z,12867.00
2023-05-14T05:28:53.150Z,4091.00
2023-05-14T05:29:53.207Z,8692.00
2023-05-14T05:30:53.178Z,6111.00
2023-05-14T05:31:53.253Z,6365.00
2023-05-14T05:32:53.216Z,5336.00
2023-05-14T05:33:53.139Z,5212.00
2023-05-14T05:34:53.092Z,4619.00
2023-05-14T05:35:53.096Z,5509.00
2023-05-14T05:36:53.060Z,4527.00
2023-05-14T05:37:53.090Z,4306.00
2023-05-14T05:38:53.100Z,4109.00
2023-05-14T05:39:53.084Z,3875.00
2023-05-14T05:40:53.056Z,3602.00
2023-05-14T05:41:53.040Z,4015.00
2023-05-14T05:42:53.079Z,3884.00
2023-05-14T05:43:53.031Z,3940.00
2023-05-14T05:44:53.015Z,3834.00
2023-05-14T05:45:53.009Z,4020.00
2023-05-14T05:46:53.023Z,4127.00
2023-05-14T05:47:53.026Z,4162.00
2023-05-14T05:48:52.959Z,4704.00
2023-05-14T05:49:52.948Z,4641.00
2023-05-14T05:50:52.950Z,4724.00
2023-05-14T05:51:52.969Z,4809.00
2023-05-14T05:52:52.907Z,4617.00
2023-05-14T05:53:52.921Z,4814.00
2023-05-14T05:54:52.868Z,4591.00
2023-05-14T05:55:52.863Z,4935.00
2023-05-14T05:56:52.867Z,4972.00
2023-05-14T05:57:52.864Z,5677.00
2023-05-14T05:58:52.835Z,4981.00
2023-05-14T05:59:52.847Z,6515.00
2023-05-14T06:00:52.826Z,5780.00
2023-05-14T06:01:52.896Z,6291.00
2023-05-14T06:02:53.025Z,6001.00
2023-05-14T06:03:52.936Z,5952.00
2023-05-14T06:04:52.856Z,6117.00
2023-05-14T06:05:52.820Z,6238.00
2023-05-14T06:06:52.782Z,6161.00
2023-05-14T06:07:52.789Z,2332.00
2023-05-14T06:08:52.741Z,12471.00
2023-05-14T06:09:52.749Z,5712.00
2023-05-14T06:10:52.726Z,5689.00
2023-05-14T06:11:52.721Z,5228.00
2023-05-14T06:12:52.720Z,5910.00
2023-05-14T06:13:52.737Z,5880.00
2023-05-14T06:14:52.766Z,5821.00
2023-05-14T06:15:52.672Z,5276.00
2023-05-14T06:16:52.712Z,5502.00
2023-05-14T06:17:52.723Z,5130.00
2023-05-14T06:18:52.650Z,5082.00
2023-05-14T06:19:52.646Z,4624.00
2023-05-14T06:20:53.675Z,4497.00
2023-05-14T06:21:52.850Z,4376.00
2023-05-14T06:22:52.642Z,4222.00
2023-05-14T06:23:52.604Z,3989.00
2023-05-14T06:24:52.601Z,3795.00
2023-05-14T06:25:52.609Z,3672.00
2023-05-14T06:26:52.649Z,3721.00
2023-05-14T06:27:52.601Z,3802.00
2023-05-14T06:28:52.556Z,3551.00
2023-05-14T06:29:52.586Z,4267.00
2023-05-14T06:30:52.524Z,3998.00
2023-05-14T06:31:52.630Z,3920.00
2023-05-14T06:32:52.507Z,3962.00
2023-05-14T06:33:52.507Z,4018.00
2023-05-14T06:34:52.516Z,4125.00
2023-05-14T06:35:52.465Z,4177.00
2023-05-14T06:36:52.621Z,4245.00
2023-05-14T06:37:52.525Z,4286.00
2023-05-14T06:38:52.414Z,4261.00
2023-05-14T06:39:52.432Z,4259.00
2023-05-14T06:40:52.452Z,4273.00
2023-05-14T06:41:52.488Z,4331.00
2023-05-14T06:42:52.370Z,4423.00
2023-05-14T06:43:52.353Z,4463.00
2023-05-14T06:44:52.352Z,4421.00
2023-05-14T06:45:52.365Z,4441.00
2023-05-14T06:46:52.379Z,4443.00
2023-05-14T06:47:52.446Z,4489.00
2023-05-14T06:48:52.428Z,4490.00
2023-05-14T06:49:52.310Z,4424.00
2023-05-14T06:50:52.284Z,4390.00
2023-05-14T06:51:52.370Z,4379.00
2023-05-14T06:52:52.419Z,4370.00
2023-05-14T06:53:53.240Z,4351.00
2023-05-14T06:54:52.258Z,4302.00
2023-05-14T06:55:52.361Z,4230.00
2023-05-14T06:56:52.280Z,4173.00
2023-05-14T06:57:52.283Z,4194.00
2023-05-14T06:58:52.249Z,4283.00
2023-05-14T06:59:52.464Z,4343.00
2023-05-14T07:00:52.552Z,4470.00
2023-05-14T07:01:52.396Z,4562.00
2023-05-14T07:02:52.355Z,4511.00
2023-05-14T07:03:52.211Z,4496.00
2023-05-14T07:04:52.208Z,4551.00
2023-05-14T07:05:52.136Z,4593.00
2023-05-14T07:06:52.190Z,4653.00
2023-05-14T07:07:52.116Z,4774.00
2023-05-14T07:08:52.091Z,4760.00
2023-05-14T07:09:52.110Z,4859.00
2023-05-14T07:10:52.097Z,5096.00
2023-05-14T07:11:52.049Z,5145.00
2023-05-14T07:12:52.085Z,5236.00
2023-05-14T07:13:52.085Z,5256.00
2023-05-14T07:14:52.058Z,5184.00
2023-05-14T07:15:52.401Z,5116.00
2023-05-14T07:16:52.113Z,5029.00
2023-05-14T07:17:52.042Z,4925.00
2023-05-14T07:18:52.013Z,4853.00
2023-05-14T07:19:52.052Z,4905.00
2023-05-14T07:20:52.025Z,4882.00
2023-05-14T07:21:52.057Z,4899.00
2023-05-14T07:22:51.965Z,4929.00
2023-05-14T07:23:51.947Z,4968.00
2023-05-14T07:24:51.953Z,5129.00
2023-05-14T07:25:52.011Z,5311.00
2023-05-14T07:26:51.934Z,5544.00
2023-05-14T07:27:51.913Z,5814.00
2023-05-14T07:28:51.920Z,6055.00
2023-05-14T07:29:51.885Z,6156.00
2023-05-14T07:30:51.924Z,6422.00
2023-05-14T07:31:51.923Z,6798.00
2023-05-14T07:32:51.861Z,6983.00
2023-05-14T07:33:51.847Z,7443.00
2023-05-14T07:34:51.937Z,7856.00
2023-05-14T07:35:51.821Z,7836.00
2023-05-14T07:36:51.826Z,8387.00
2023-05-14T07:37:51.829Z,8440.00
2023-05-14T07:38:51.818Z,8086.00
2023-05-14T07:39:51.793Z,8078.00
2023-05-14T07:40:51.809Z,7914.00
2023-05-14T07:41:51.789Z,7848.00
2023-05-14T07:42:51.762Z,7739.00
2023-05-14T07:43:51.756Z,7660.00
2023-05-14T07:44:51.786Z,7563.00
2023-05-14T07:45:51.727Z,7504.00
2023-05-14T07:46:51.751Z,7580.00
2023-05-14T07:47:51.913Z,7601.00
2023-05-14T07:48:51.700Z,7966.00
2023-05-14T07:49:51.703Z,8170.00
2023-05-14T07:50:51.679Z,8266.00
2023-05-14T07:51:51.704Z,8547.00
2023-05-14T07:52:51.660Z,8595.00
2023-05-14T07:53:51.688Z,8667.00
2023-05-14T07:54:51.601Z,8589.00
2023-05-14T07:55:51.648Z,8616.00
2023-05-14T07:56:51.663Z,8399.00
2023-05-14T07:57:51.612Z,8058.00
2023-05-14T07:58:51.574Z,7862.00
2023-05-14T07:59:51.574Z,7879.00
2023-05-14T08:00:51.545Z,7875.00
2023-05-14T08:01:51.617Z,7943.00
2023-05-14T08:02:51.691Z,8083.00
2023-05-14T08:03:51.576Z,8171.00
2023-05-14T08:04:51.518Z,8180.00
2023-05-14T08:05:51.530Z,8246.00
2023-05-14T08:06:51.539Z,8222.00
2023-05-14T08:07:51.484Z,8072.00
2023-05-14T08:08:51.455Z,8150.00
2023-05-14T08:09:51.454Z,8461.00
2023-05-14T08:10:51.600Z,8479.00
2023-05-14T08:11:51.436Z,8449.00
2023-05-14T08:12:51.479Z,8444.00
2023-05-14T08:13:51.465Z,8474.00
2023-05-14T08:14:51.511Z,8574.00
2023-05-14T08:15:51.394Z,8616.00
2023-05-14T08:16:51.521Z,8764.00
2023-05-14T08:17:51.566Z,8743.00
2023-05-14T08:18:51.401Z,8764.00
2023-05-14T08:19:51.429Z,8543.00
2023-05-14T08:20:51.370Z,9065.00
2023-05-14T08:21:51.488Z,8748.00
2023-05-14T08:22:51.333Z,8588.00
2023-05-14T08:23:51.301Z,8919.00
2023-05-14T08:24:51.337Z,8544.00
2023-05-14T08:25:51.457Z,8407.00
2023-05-14T08:26:51.343Z,8344.00
2023-05-14T08:27:51.290Z,8345.00
2023-05-14T08:28:51.268Z,8287.00
2023-05-14T08:29:51.340Z,8301.00
2023-05-14T08:30:51.242Z,8163.00
2023-05-14T08:31:51.281Z,8301.00
2023-05-14T08:32:51.290Z,8409.00
2023-05-14T08:33:51.232Z,8454.00
2023-05-14T08:34:51.290Z,8753.00
2023-05-14T08:35:51.192Z,8807.00
2023-05-14T08:36:51.213Z,8872.00
2023-05-14T08:37:51.235Z,8991.00
2023-05-14T08:38:51.151Z,8835.00
2023-05-14T08:39:51.158Z,9555.00
2023-05-14T08:40:51.146Z,9479.00
2023-05-14T08:41:51.154Z,9316.00
2023-05-14T08:42:51.180Z,9637.00
2023-05-14T08:43:51.516Z,9401.00
2023-05-14T08:44:51.178Z,9250.00
2023-05-14T08:45:51.187Z,9224.00
2023-05-14T08:46:51.066Z,9163.00
2023-05-14T08:47:51.465Z,9059.00
2023-05-14T08:48:51.136Z,8758.00
2023-05-14T08:49:51.021Z,8625.00
2023-05-14T08:50:51.003Z,8496.00
2023-05-14T08:51:51.089Z,8550.00
2023-05-14T08:52:51.015Z,8661.00
2023-05-14T08:53:51.006Z,8761.00
2023-05-14T08:54:50.985Z,8883.00
2023-05-14T08:55:51.020Z,9085.00
2023-05-14T08:56:51.872Z,9173.00
2023-05-14T08:57:50.988Z,9223.00
2023-05-14T08:58:50.961Z,9217.00
2023-05-14T08:59:50.948Z,9389.00
2023-05-14T09:00:50.983Z,9797.00
2023-05-14T09:01:50.927Z,9936.00
2023-05-14T09:02:51.047Z,9648.00
2023-05-14T09:03:50.951Z,9410.00
2023-05-14T09:04:50.903Z,10228.00
2023-05-14T09:05:50.888Z,9640.00
2023-05-14T09:06:50.916Z,9003.00
2023-05-14T09:07:50.831Z,10026.00
2023-05-14T09:08:50.887Z,9487.00
2023-05-14T09:09:50.812Z,10467.00
2023-05-14T09:10:50.824Z,8832.00
2023-05-14T09:11:50.903Z,10609.00
2023-05-14T09:12:50.788Z,9032.00
2023-05-14T09:13:50.916Z,9825.00
2023-05-14T09:14:50.791Z,7923.00
2023-05-14T09:15:50.796Z,8323.00
2023-05-14T09:16:50.863Z,8967.00
2023-05-14T09:17:50.941Z,9231.00
2023-05-14T09:18:50.798Z,9678.00
2023-05-14T09:19:59.833Z,7993.00
2023-05-14T09:20:50.726Z,8066.00
2023-05-14T09:21:50.755Z,8246.00
2023-05-14T09:22:50.670Z,8175.00
2023-05-14T09:23:50.701Z,8014.00
2023-05-14T09:24:50.653Z,7932.00
2023-05-14T09:25:50.675Z,7753.00
2023-05-14T09:26:50.836Z,7794.00
2023-05-14T09:27:50.668Z,7766.00
2023-05-14T09:28:50.666Z,7703.00
2023-05-14T09:29:50.619Z,7631.00
2023-05-14T09:30:50.618Z,7567.00
2023-05-14T09:31:50.678Z,7460.00
2023-05-14T09:32:50.694Z,7369.00
2023-05-14T09:33:50.637Z,8261.00
2023-05-14T09:34:50.578Z,6524.00
2023-05-14T09:35:50.571Z,7698.00
2023-05-14T09:36:50.591Z,5463.00
2023-05-14T09:37:50.602Z,7024.00
2023-05-14T09:38:50.540Z,7293.00
2023-05-14T09:39:50.521Z,6754.00
2023-05-14T09:40:50.623Z,7545.00
2023-05-14T09:41:50.495Z,7562.00
2023-05-14T09:42:50.557Z,7576.00
2023-05-14T09:43:50.501Z,7484.00
2023-05-14T09:44:50.447Z,7456.00
2023-05-14T09:45:50.468Z,7376.00
2023-05-14T09:46:50.493Z,7247.00
2023-05-14T09:47:50.535Z,7966.00
2023-05-14T09:48:50.491Z,1664.00
2023-05-14T09:49:50.426Z,7875.00
2023-05-14T09:50:50.474Z,4824.00
2023-05-14T09:51:50.422Z,1435.00
2023-05-14T09:52:50.420Z,5139.00
2023-05-14T09:53:50.387Z,7350.00
2023-05-14T09:54:50.383Z,7600.00
2023-05-14T09:55:50.356Z,8464.00
2023-05-14T09:56:50.382Z,8002.00
2023-05-14T09:57:50.349Z,2381.00
2023-05-14T09:58:50.365Z,8063.00
2023-05-14T09:59:50.344Z,1947.00
2023-05-14T10:00:50.346Z,7184.00
2023-05-14T10:01:50.323Z,4783.00
2023-05-14T10:02:50.422Z,4175.00
2023-05-14T10:03:50.317Z,2709.00
2023-05-14T10:04:50.424Z,7584.00
2023-05-14T10:05:50.251Z,1826.00
2023-05-14T10:06:50.282Z,8683.00
2023-05-14T10:07:50.210Z,6880.00
2023-05-14T10:08:50.217Z,7971.00
2023-05-14T10:09:50.201Z,8271.00
2023-05-14T10:10:50.642Z,8325.00
2023-05-14T10:11:50.220Z,8705.00
2023-05-14T10:12:50.182Z,8985.00
2023-05-14T10:13:50.266Z,9388.00
2023-05-14T10:14:50.196Z,11931.00
2023-05-14T10:15:50.137Z,8836.00
2023-05-14T10:16:50.254Z,6738.00
2023-05-14T10:17:50.238Z,6177.00
2023-05-14T10:18:50.137Z,5565.00
2023-05-14T10:19:50.173Z,5210.00
2023-05-14T10:20:50.088Z,5016.00
2023-05-14T10:21:50.075Z,5078.00
2023-05-14T10:22:50.071Z,2466.00
2023-05-14T10:23:50.183Z,6264.00
2023-05-14T10:24:50.092Z,5431.00
2023-05-14T10:25:50.057Z,8812.00
2023-05-14T10:26:50.076Z,9041.00
2023-05-14T10:27:50.068Z,9181.00
2023-05-14T10:28:50.048Z,9120.00
2023-05-14T10:29:50.037Z,11095.00
2023-05-14T10:30:50.045Z,9291.00
2023-05-14T10:31:49.977Z,5260.00
2023-05-14T10:32:50.042Z,6859.00
2023-05-14T10:33:49.971Z,5697.00
2023-05-14T10:34:49.959Z,4891.00
2023-05-14T10:35:49.952Z,7871.00
2023-05-14T10:36:49.908Z,5692.00
2023-05-14T10:37:49.908Z,5737.00
2023-05-14T10:38:49.945Z,5701.00
2023-05-14T10:39:49.916Z,5580.00
2023-05-14T10:40:51.542Z,5588.00
2023-05-14T10:41:49.877Z,5620.00
2023-05-14T10:42:49.853Z,5461.00
2023-05-14T10:43:49.887Z,5358.00
2023-05-14T10:44:49.858Z,5347.00
2023-05-14T10:45:49.839Z,5403.00
2023-05-14T10:46:49.872Z,5396.00
2023-05-14T10:47:49.946Z,5332.00
2023-05-14T10:48:49.812Z,5330.00
2023-05-14T10:49:49.845Z,5527.00
2023-05-14T10:50:49.818Z,5670.00
2023-05-14T10:51:49.837Z,5725.00
2023-05-14T10:52:49.736Z,5551.00
2023-05-14T10:53:49.745Z,5206.00
2023-05-14T10:54:49.724Z,4713.00
2023-05-14T10:55:49.745Z,4203.00
2023-05-14T10:56:49.735Z,3699.00
2023-05-14T10:57:49.720Z,3230.00
2023-05-14T10:58:49.673Z,2856.00
2023-05-14T10:59:49.672Z,2566.00
2023-05-14T11:00:49.699Z,2332.00
2023-05-14T11:01:49.687Z,2160.00
2023-05-14T11:02:49.744Z,2087.00
2023-05-14T11:03:49.698Z,2088.00
2023-05-14T11:04:49.624Z,2103.00
2023-05-14T11:05:49.595Z,2109.00
2023-05-14T11:06:49.640Z,2102.00
2023-05-14T11:07:49.573Z,2128.00
2023-05-14T11:08:49.597Z,2164.00
2023-05-14T11:09:49.567Z,2210.00
2023-05-14T11:10:49.575Z,2272.00
2023-05-14T11:11:49.551Z,2332.00
2023-05-14T11:12:49.550Z,2423.00
2023-05-14T11:13:49.622Z,2561.00
2023-05-14T11:14:49.517Z,2716.00
2023-05-14T11:15:49.539Z,2900.00
2023-05-14T11:16:49.649Z,3086.00
2023-05-14T11:17:49.589Z,3274.00
2023-05-14T11:18:49.493Z,3465.00
2023-05-14T11:19:51.057Z,3647.00
2023-05-14T11:20:49.496Z,3855.00
2023-05-14T11:21:49.573Z,4103.00
2023-05-14T11:22:49.446Z,4351.00
2023-05-14T11:23:49.451Z,4646.00
2023-05-14T11:24:49.409Z,4915.00
2023-05-14T11:25:49.464Z,5179.00
2023-05-14T11:26:49.398Z,5372.00
2023-05-14T11:27:49.398Z,5376.00
2023-05-14T11:28:49.432Z,6296.00
2023-05-14T11:29:49.407Z,5874.00
2023-05-14T11:30:49.397Z,5664.00
2023-05-14T11:31:49.498Z,5653.00
2023-05-14T11:32:49.509Z,5631.00
2023-05-14T11:33:49.335Z,5492.00
2023-05-14T11:34:49.307Z,5309.00
2023-05-14T11:35:50.535Z,5083.00
2023-05-14T11:36:49.328Z,4890.00
2023-05-14T11:37:49.365Z,4665.00
2023-05-14T11:38:49.390Z,4423.00
2023-05-14T11:39:49.326Z,4212.00
2023-05-14T11:40:49.319Z,4095.00
2023-05-14T11:41:49.221Z,4100.00
2023-05-14T11:42:49.349Z,4161.00
2023-05-14T11:43:49.336Z,4249.00
2023-05-14T11:44:49.263Z,4292.00
2023-05-14T11:45:49.315Z,4339.00
2023-05-14T11:46:49.176Z,4395.00
2023-05-14T11:47:49.285Z,4503.00
2023-05-14T11:48:49.240Z,4625.00
2023-05-14T11:49:49.199Z,4749.00
2023-05-14T11:50:49.130Z,4839.00
2023-05-14T11:51:49.184Z,4843.00
2023-05-14T11:52:49.240Z,4811.00
2023-05-14T11:53:49.184Z,4714.00
2023-05-14T11:54:49.185Z,4569.00
2023-05-14T11:55:49.176Z,4399.00
2023-05-14T11:56:49.232Z,4242.00
2023-05-14T11:57:49.133Z,4080.00
2023-05-14T11:58:49.134Z,3976.00
2023-05-14T11:59:49.162Z,3934.00
2023-05-14T12:00:49.018Z,3963.00
2023-05-14T12:01:50.681Z,3988.00
2023-05-14T12:02:49.160Z,4062.00
2023-05-14T12:03:49.106Z,4180.00
2023-05-14T12:04:49.116Z,4354.00
2023-05-14T12:05:48.977Z,4529.00
2023-05-14T12:06:48.998Z,4461.00
2023-05-14T12:07:48.953Z,5767.00
2023-05-14T12:08:48.969Z,5280.00
2023-05-14T12:09:48.974Z,5256.00
2023-05-14T12:10:48.925Z,4960.00
2023-05-14T12:11:48.996Z,7539.00
2023-05-14T12:12:48.889Z,4260.00
2023-05-14T12:13:48.877Z,8731.00
2023-05-14T12:14:48.982Z,11099.00
2023-05-14T12:15:49.044Z,7443.00
2023-05-14T12:16:48.916Z,8050.00
2023-05-14T12:17:48.912Z,7504.00
2023-05-14T12:18:49.027Z,7197.00
2023-05-14T12:19:48.865Z,6943.00
2023-05-14T12:20:49.014Z,7429.00
2023-05-14T12:21:48.831Z,7108.00
2023-05-14T12:22:48.874Z,7108.00
2023-05-14T12:23:48.845Z,9488.00
2023-05-14T12:24:48.855Z,7679.00